createdAt,value
2023-05-19T00:00:26.199Z,77.25
2023-05-19T00:02:56.271Z,77.65
2023-05-19T00:05:25.447Z,77.82
2023-05-19T00:07:59.971Z,77.92
2023-05-19T00:10:31.637Z,78.08
2023-05-19T00:13:03.083Z,78.15
2023-05-19T00:15:31.846Z,78.42
2023-05-19T00:17:59.814Z,78.95
2023-05-19T00:20:28.666Z,78.86
2023-05-19T00:22:56.733Z,79.18
2023-05-19T00:25:24.901Z,79.34
2023-05-19T00:27:53.741Z,78.76
2023-05-19T00:30:23.832Z,79.19
2023-05-19T00:32:52.854Z,79.53
2023-05-19T00:35:22.032Z,79.36
2023-05-19T00:37:50.055Z,80.04
2023-05-19T00:40:18.838Z,79.80
2023-05-19T00:42:48.340Z,79.69
2023-05-19T00:45:16.280Z,79.66
2023-05-19T00:47:46.263Z,80.15
2023-05-19T00:50:14.554Z,79.72
2023-05-19T00:52:42.503Z,80.59
2023-05-19T00:55:11.559Z,80.93
2023-05-19T00:57:40.055Z,80.59
2023-05-19T01:00:11.730Z,80.23
2023-05-19T01:02:40.792Z,80.38
2023-05-19T01:05:11.679Z,80.40
2023-05-19T01:07:40.267Z,80.21
2023-05-19T01:10:08.699Z,80.73
2023-05-19T01:12:38.480Z,79.93
2023-05-19T01:15:07.816Z,79.63
2023-05-19T01:17:47.320Z,79.57
2023-05-19T01:20:23.309Z,80.65
2023-05-19T01:23:30.637Z,81.70
2023-05-19T01:26:31.724Z,82.34
2023-05-19T01:29:16.660Z,82.52
2023-05-19T01:31:49.012Z,81.47
2023-05-19T01:34:18.995Z,81.34
2023-05-19T01:36:49.934Z,81.64
2023-05-19T01:39:19.084Z,81.38
2023-05-19T01:41:47.798Z,80.70
2023-05-19T01:44:17.126Z,81.83
2023-05-19T01:46:47.779Z,81.37
2023-05-19T01:49:15.824Z,81.53
2023-05-19T01:51:45.983Z,81.71
2023-05-19T01:54:14.953Z,82.44
2023-05-19T01:56:53.840Z,82.10
2023-05-19T01:59:35.392Z,83.02
2023-05-19T02:02:14.738Z,82.80
2023-05-19T02:04:48.079Z,82.00
2023-05-19T02:07:23.645Z,82.44
2023-05-19T02:09:56.889Z,83.24
2023-05-19T02:12:29.529Z,82.90
2023-05-19T02:15:05.600Z,82.70
2023-05-19T02:17:37.746Z,82.56
2023-05-19T02:20:09.234Z,83.28
2023-05-19T02:22:37.885Z,83.03
2023-05-19T02:25:06.937Z,82.81
2023-05-19T02:27:36.618Z,83.02
2023-05-19T02:30:04.957Z,82.26
2023-05-19T02:32:33.669Z,82.93
2023-05-19T02:35:04.544Z,83.24
2023-05-19T02:37:32.584Z,83.72
2023-05-19T02:40:00.657Z,83.70
2023-05-19T02:42:29.571Z,83.46
2023-05-19T02:44:57.628Z,83.39
2023-05-19T02:47:25.639Z,83.30
2023-05-19T02:49:54.484Z,83.47
2023-05-19T02:52:24.301Z,83.92
2023-05-19T02:54:52.790Z,84.14
2023-05-19T02:57:22.406Z,84.70
2023-05-19T02:59:51.058Z,84.03
2023-05-19T03:02:19.736Z,83.43
2023-05-19T03:04:48.820Z,83.57
2023-05-19T03:07:16.982Z,84.40
2023-05-19T03:09:46.429Z,84.32
2023-05-19T03:12:14.843Z,84.72
2023-05-19T03:14:44.275Z,84.05
2023-05-19T03:17:13.012Z,83.08
2023-05-19T03:19:42.110Z,82.80
2023-05-19T03:22:10.150Z,83.43
2023-05-19T03:24:38.505Z,83.45
2023-05-19T03:27:09.764Z,83.43
2023-05-19T03:29:38.730Z,83.17
2023-05-19T03:32:07.163Z,83.60
2023-05-19T03:34:35.713Z,83.15
2023-05-19T03:37:04.606Z,84.14
2023-05-19T03:39:32.719Z,83.58
2023-05-19T03:42:01.804Z,83.39
2023-05-19T03:44:32.037Z,83.73
2023-05-19T03:47:01.752Z,83.39
2023-05-19T03:49:54.519Z,83.16
2023-05-19T03:52:46.624Z,83.26
2023-05-19T03:55:26.204Z,83.04
2023-05-19T03:57:54.173Z,82.78
2023-05-19T04:00:24.010Z,82.99
2023-05-19T04:02:52.880Z,82.87
2023-05-19T04:05:20.889Z,83.56
2023-05-19T04:07:49.299Z,83.17
2023-05-19T04:10:19.186Z,84.09
2023-05-19T04:12:48.737Z,84.16
2023-05-19T04:15:17.283Z,83.96
2023-05-19T04:17:47.353Z,83.21
2023-05-19T04:20:15.625Z,83.33
2023-05-19T04:22:44.051Z,83.26
2023-05-19T04:25:12.464Z,82.84
2023-05-19T04:27:40.981Z,82.06
2023-05-19T04:30:11.362Z,82.06
2023-05-19T04:32:41.440Z,81.84
2023-05-19T04:35:14.166Z,81.34
2023-05-19T04:37:45.918Z,81.55
2023-05-19T04:40:16.424Z,81.01
2023-05-19T04:42:46.144Z,80.77
2023-05-19T04:45:14.937Z,79.89
2023-05-19T04:47:48.588Z,79.09
2023-05-19T04:50:18.130Z,78.20
2023-05-19T04:52:47.072Z,78.43
2023-05-19T04:55:17.231Z,78.58
2023-05-19T04:57:47.466Z,78.60
2023-05-19T05:00:16.877Z,78.91
2023-05-19T05:03:01.427Z,79.19
2023-05-19T05:05:32.842Z,77.53
2023-05-19T05:08:02.535Z,76.52
2023-05-19T05:10:35.444Z,76.80
2023-05-19T05:13:04.827Z,76.00
2023-05-19T05:15:33.332Z,75.91
2023-05-19T05:18:05.518Z,75.00
2023-05-19T05:20:35.870Z,74.16
2023-05-19T05:23:05.705Z,74.24
2023-05-19T05:25:35.812Z,73.98
2023-05-19T05:28:05.540Z,73.12
2023-05-19T05:30:36.132Z,72.50
2023-05-19T05:33:06.369Z,71.01
2023-05-19T05:35:41.751Z,70.29
2023-05-19T05:38:12.672Z,69.54
2023-05-19T05:40:41.592Z,69.82
2023-05-19T05:43:10.088Z,69.21
2023-05-19T05:45:45.422Z,69.69
2023-05-19T05:48:14.531Z,68.29
2023-05-19T05:50:44.650Z,68.60
2023-05-19T05:53:20.461Z,69.35
2023-05-19T05:55:53.564Z,69.92
2023-05-19T05:58:26.470Z,69.77
2023-05-19T06:00:57.650Z,69.45
2023-05-19T06:03:27.761Z,69.81
2023-05-19T06:05:59.193Z,70.10
2023-05-19T06:08:27.933Z,68.29
2023-05-19T06:10:55.980Z,68.51
2023-05-19T06:13:24.207Z,68.01
2023-05-19T06:15:53.872Z,66.20
2023-05-19T06:18:26.810Z,65.79
2023-05-19T06:20:55.681Z,65.39
2023-05-19T06:23:26.784Z,64.92
2023-05-19T06:25:55.663Z,65.09
2023-05-19T06:28:23.711Z,64.64
2023-05-19T06:30:53.214Z,63.99
2023-05-19T06:33:29.468Z,64.61
2023-05-19T06:35:57.866Z,64.19
2023-05-19T06:38:27.788Z,64.00
2023-05-19T06:40:56.926Z,63.61
2023-05-19T06:43:25.775Z,63.48
2023-05-19T06:45:56.829Z,62.75
2023-05-19T06:48:26.238Z,62.55
2023-05-19T06:50:54.976Z,60.92
2023-05-19T06:53:24.150Z,60.30
2023-05-19T06:56:00.036Z,61.56
2023-05-19T06:58:33.821Z,60.22
2023-05-19T07:01:04.614Z,60.05
2023-05-19T07:03:39.781Z,59.55
2023-05-19T07:06:09.858Z,59.88
2023-05-19T07:08:38.468Z,60.18
2023-05-19T07:11:09.966Z,59.72
2023-05-19T07:13:38.070Z,58.98
2023-05-19T07:16:08.033Z,58.29
2023-05-19T07:18:36.147Z,59.05
2023-05-19T07:21:05.096Z,58.97
2023-05-19T07:23:33.527Z,58.48
2023-05-19T07:26:01.500Z,58.36
2023-05-19T07:28:31.346Z,58.48
2023-05-19T07:30:59.285Z,57.26
2023-05-19T07:33:28.040Z,56.66
2023-05-19T07:35:57.320Z,56.17
2023-05-19T07:38:25.328Z,56.41
2023-05-19T07:40:53.780Z,54.96
2023-05-19T07:43:22.203Z,55.02
2023-05-19T07:45:53.520Z,54.92
2023-05-19T07:48:22.914Z,55.98
2023-05-19T07:50:51.149Z,55.69
2023-05-19T07:53:19.874Z,56.17
2023-05-19T07:55:48.851Z,55.47
2023-05-19T07:58:17.464Z,55.26
2023-05-19T08:00:46.028Z,54.58
2023-05-19T08:03:18.404Z,55.36
2023-05-19T08:05:46.641Z,54.66
2023-05-19T08:08:16.924Z,54.00
2023-05-19T08:10:45.987Z,52.97
2023-05-19T08:13:14.233Z,52.48
2023-05-19T08:15:42.769Z,51.75
2023-05-19T08:18:11.917Z,50.56
2023-05-19T08:20:41.249Z,50.25
2023-05-19T08:23:09.662Z,49.56
2023-05-19T08:25:38.574Z,49.82
2023-05-19T08:28:06.560Z,50.00
2023-05-19T08:30:34.742Z,50.31
2023-05-19T08:33:03.628Z,49.85
2023-05-19T08:35:32.434Z,48.66
2023-05-19T08:38:01.965Z,49.21
2023-05-19T08:40:32.282Z,48.00
2023-05-19T08:43:03.385Z,47.97
2023-05-19T08:45:34.814Z,49.79
2023-05-19T08:48:08.050Z,49.06
2023-05-19T08:50:40.462Z,50.17
2023-05-19T08:53:31.940Z,48.38
2023-05-19T08:56:10.164Z,48.22
2023-05-19T08:58:40.613Z,47.87
2023-05-19T09:01:08.929Z,48.59
2023-05-19T09:03:38.185Z,45.61
2023-05-19T09:06:08.092Z,45.04
2023-05-19T09:08:37.694Z,46.12
2023-05-19T09:11:06.383Z,44.80
2023-05-19T09:13:34.855Z,43.78
2023-05-19T09:16:03.763Z,43.49
2023-05-19T09:18:33.006Z,43.35
2023-05-19T09:21:02.725Z,44.83
2023-05-19T09:23:33.688Z,44.46
2023-05-19T09:26:07.772Z,40.37
2023-05-19T09:28:38.272Z,40.94
2023-05-19T09:31:07.431Z,42.26
2023-05-19T09:33:38.089Z,42.86
2023-05-19T09:36:09.252Z,42.65
2023-05-19T09:38:38.096Z,42.70
2023-05-19T09:41:08.818Z,41.48
2023-05-19T09:43:37.065Z,39.06
2023-05-19T09:46:06.015Z,38.47
2023-05-19T09:48:34.564Z,35.52
2023-05-19T09:51:03.107Z,34.88
2023-05-19T09:53:33.454Z,35.23
2023-05-19T09:57:48.736Z,36.02
2023-05-19T10:00:18.249Z,35.50
2023-05-19T10:02:49.323Z,34.43
2023-05-19T10:05:20.362Z,33.10
2023-05-19T10:07:52.923Z,34.84
2023-05-19T10:10:22.145Z,34.40
2023-05-19T10:12:52.204Z,35.76
2023-05-19T10:15:26.277Z,33.58
2023-05-19T10:17:55.158Z,34.33
2023-05-19T10:20:23.532Z,34.74
2023-05-19T10:22:52.637Z,33.25
2023-05-19T10:25:21.161Z,34.39
2023-05-19T10:27:56.424Z,33.93
2023-05-19T10:30:28.496Z,34.41
2023-05-19T10:32:59.277Z,33.68
2023-05-19T10:36:09.090Z,34.05
2023-05-19T10:38:44.137Z,33.98
2023-05-19T10:41:29.161Z,33.13
2023-05-19T10:44:11.812Z,32.76
2023-05-19T10:46:43.280Z,32.98
2023-05-19T10:49:21.200Z,34.00
2023-05-19T10:51:50.150Z,33.61
2023-05-19T10:54:21.570Z,32.17
2023-05-19T10:56:49.722Z,32.68
2023-05-19T10:59:37.850Z,33.74
2023-05-19T11:02:06.473Z,34.45
2023-05-19T11:04:41.729Z,35.80
2023-05-19T11:07:10.546Z,36.08
2023-05-19T11:09:42.110Z,35.91
2023-05-19T11:12:11.680Z,35.00
2023-05-19T11:14:41.600Z,33.79
2023-05-19T11:17:15.560Z,32.81
2023-05-19T11:19:54.980Z,32.29
2023-05-19T11:22:25.871Z,31.54
2023-05-19T11:24:56.736Z,33.17
2023-05-19T11:27:28.160Z,33.99
2023-05-19T11:29:59.431Z,34.30
2023-05-19T11:32:29.807Z,32.57
2023-05-19T11:34:59.464Z,32.68
2023-05-19T11:37:28.744Z,34.49
2023-05-19T11:39:57.016Z,33.04
2023-05-19T11:42:25.673Z,33.17
2023-05-19T11:44:57.731Z,32.92
2023-05-19T11:47:27.070Z,33.25
2023-05-19T11:49:56.656Z,32.63
2023-05-19T11:52:25.690Z,32.15
2023-05-19T11:54:54.700Z,33.03
2023-05-19T11:57:22.701Z,33.36
2023-05-19T11:59:53.738Z,33.99
2023-05-19T12:02:26.108Z,32.95
2023-05-19T12:04:55.932Z,32.67
2023-05-19T12:07:25.017Z,32.60
2023-05-19T12:09:53.997Z,32.81
2023-05-19T12:12:23.469Z,31.60
2023-05-19T12:14:52.969Z,31.92
2023-05-19T12:17:23.934Z,33.08
2023-05-19T12:19:54.374Z,32.25
2023-05-19T12:22:22.520Z,31.28
2023-05-19T12:24:52.777Z,29.91
2023-05-19T12:27:22.921Z,29.73
2023-05-19T12:29:52.881Z,29.88
2023-05-19T12:32:24.084Z,30.56
2023-05-19T12:34:54.330Z,32.47
2023-05-19T12:37:28.449Z,30.25
2023-05-19T12:39:57.166Z,27.01
2023-05-19T12:42:31.599Z,28.85
2023-05-19T12:45:02.969Z,27.16
2023-05-19T12:47:39.394Z,26.77
2023-05-19T12:50:14.540Z,26.97
2023-05-19T12:52:48.397Z,27.02
2023-05-19T12:55:21.355Z,28.27
2023-05-19T12:57:58.880Z,32.32
2023-05-19T13:00:31.380Z,31.53
2023-05-19T13:03:16.147Z,27.97
2023-05-19T13:05:50.481Z,28.51
2023-05-19T13:08:21.704Z,27.75
2023-05-19T13:10:50.394Z,26.81
2023-05-19T13:13:19.391Z,26.29
2023-05-19T13:15:49.695Z,24.80
2023-05-19T13:18:18.601Z,25.75
2023-05-19T13:20:50.613Z,29.42
2023-05-19T13:23:18.697Z,30.95
2023-05-19T13:25:46.914Z,28.82
2023-05-19T13:28:15.387Z,26.31
2023-05-19T13:30:45.473Z,24.42
2023-05-19T13:33:13.828Z,24.92
2023-05-19T13:35:42.541Z,22.82
2023-05-19T13:38:12.039Z,23.07
2023-05-19T13:40:40.920Z,27.71
2023-05-19T13:43:10.252Z,26.15
2023-05-19T13:45:38.710Z,25.86
2023-05-19T13:48:08.141Z,28.33
2023-05-19T13:50:37.132Z,30.46
2023-05-19T13:53:05.251Z,29.39
2023-05-19T13:55:34.902Z,30.49
2023-05-19T13:58:04.008Z,25.82
2023-05-19T14:00:32.981Z,24.87
2023-05-19T14:03:01.403Z,25.00
2023-05-19T14:05:31.577Z,28.78
2023-05-19T14:08:01.158Z,28.50
2023-05-19T14:10:29.754Z,24.38
2023-05-19T14:15:34.880Z,20.86
2023-05-19T14:18:04.159Z,21.91
2023-05-19T14:20:33.598Z,22.21
2023-05-19T14:23:02.174Z,21.61
2023-05-19T14:25:32.129Z,20.97
2023-05-19T14:28:01.878Z,22.14
2023-05-19T14:30:30.516Z,24.55
2023-05-19T14:32:58.529Z,22.49
2023-05-19T14:35:27.935Z,21.69
2023-05-19T14:37:55.894Z,20.51
2023-05-19T14:40:24.340Z,20.97
2023-05-19T14:42:52.969Z,22.31
2023-05-19T14:45:23.050Z,20.78
2023-05-19T14:47:53.284Z,19.24
2023-05-19T14:50:21.998Z,21.04
2023-05-19T14:52:50.333Z,20.97
2023-05-19T14:55:19.312Z,20.08
2023-05-19T14:57:47.959Z,19.25
2023-05-19T15:00:17.435Z,18.28
2023-05-19T15:02:50.293Z,20.70
2023-05-19T15:05:19.555Z,21.27
2023-05-19T15:07:48.236Z,21.44
2023-05-19T15:10:17.177Z,25.31
2023-05-19T15:12:45.842Z,27.72
2023-05-19T15:15:14.397Z,29.15
2023-05-19T15:17:43.247Z,26.81
2023-05-19T15:20:14.213Z,23.32
2023-05-19T15:22:43.301Z,21.11
2023-05-19T15:25:12.475Z,22.23
2023-05-19T15:27:41.116Z,21.60
2023-05-19T15:30:10.302Z,25.79
2023-05-19T15:32:39.662Z,27.62
2023-05-19T15:35:09.517Z,28.66
2023-05-19T15:37:39.887Z,28.46
2023-05-19T15:40:09.577Z,29.55
2023-05-19T15:42:37.709Z,31.06
2023-05-19T15:45:08.404Z,29.24
2023-05-19T15:47:36.842Z,27.14
2023-05-19T15:50:05.768Z,24.20
2023-05-19T15:52:35.819Z,24.05
2023-05-19T15:55:11.212Z,24.63
2023-05-19T15:57:40.397Z,22.81
2023-05-19T16:00:10.222Z,21.58
2023-05-19T16:02:39.172Z,21.48
2023-05-19T16:05:08.659Z,22.72
2023-05-19T16:07:37.166Z,21.27
2023-05-19T16:10:06.412Z,21.54
2023-05-19T16:12:37.125Z,21.83
2023-05-19T16:15:05.805Z,22.46
2023-05-19T16:17:36.988Z,23.14
2023-05-19T16:20:05.623Z,24.53
2023-05-19T16:22:33.795Z,23.18
2023-05-19T16:25:02.301Z,23.83
2023-05-19T16:27:30.269Z,23.81
2023-05-19T16:30:01.088Z,23.50
2023-05-19T16:32:30.176Z,22.50
2023-05-19T16:34:58.151Z,25.83
2023-05-19T16:37:26.569Z,28.53
2023-05-19T16:39:54.947Z,25.31
2023-05-19T16:42:23.682Z,25.15
2023-05-19T16:44:52.572Z,24.04
2023-05-19T16:47:24.046Z,23.53
2023-05-19T16:49:52.060Z,23.29
2023-05-19T16:52:20.592Z,23.79
2023-05-19T16:54:49.085Z,24.14
2023-05-19T16:57:17.509Z,23.90
2023-05-19T16:59:45.573Z,25.17
2023-05-19T17:02:14.000Z,24.07
2023-05-19T17:04:43.347Z,25.38
2023-05-19T17:07:16.049Z,25.41
2023-05-19T17:09:44.586Z,25.09
2023-05-19T17:12:13.382Z,24.89
2023-05-19T17:14:44.024Z,24.94
2023-05-19T17:17:12.105Z,24.95
2023-05-19T17:19:43.953Z,26.16
2023-05-19T17:22:12.418Z,25.71
2023-05-19T17:24:40.372Z,26.94
2023-05-19T17:27:08.828Z,29.21
2023-05-19T17:29:37.286Z,32.26
2023-05-19T17:32:05.813Z,33.61
2023-05-19T17:34:33.821Z,34.93
2023-05-19T17:37:03.718Z,35.30
2023-05-19T17:39:31.694Z,35.61
2023-05-19T17:42:00.381Z,36.15
2023-05-19T17:44:28.795Z,36.30
2023-05-19T17:46:56.898Z,37.15
2023-05-19T17:49:26.414Z,36.92
2023-05-19T17:51:55.074Z,34.16
2023-05-19T17:54:26.715Z,33.45
2023-05-19T17:56:58.635Z,32.31
2023-05-19T17:59:27.233Z,31.24
2023-05-19T18:01:56.378Z,31.56
2023-05-19T18:04:25.415Z,31.49
2023-05-19T18:06:53.850Z,31.84
2023-05-19T18:09:28.925Z,32.39
2023-05-19T18:12:03.709Z,32.57
2023-05-19T18:14:32.706Z,31.71
2023-05-19T18:17:01.282Z,32.78
2023-05-19T18:19:29.808Z,34.04
2023-05-19T18:21:58.785Z,35.05
2023-05-19T18:24:28.725Z,36.18
2023-05-19T18:26:57.047Z,36.95
2023-05-19T18:29:25.574Z,37.75
2023-05-19T18:31:54.010Z,37.48
2023-05-19T18:34:22.159Z,38.18
2023-05-19T18:36:50.903Z,38.28
2023-05-19T18:39:19.298Z,38.32
2023-05-19T18:41:49.722Z,38.61
2023-05-19T18:44:18.701Z,37.66
2023-05-19T18:46:46.709Z,37.84
2023-05-19T18:49:15.158Z,39.26
2023-05-19T18:51:43.540Z,39.38
2023-05-19T18:54:12.597Z,39.73
2023-05-19T18:56:41.424Z,40.69
2023-05-19T18:59:11.290Z,41.41
2023-05-19T19:01:39.302Z,42.12
2023-05-19T19:04:07.720Z,42.27
2023-05-19T19:06:35.979Z,42.10
2023-05-19T19:09:05.295Z,42.15
2023-05-19T19:11:33.389Z,43.29
2023-05-19T19:14:01.591Z,42.85
2023-05-19T19:16:31.733Z,42.93
2023-05-19T19:19:00.277Z,43.15
2023-05-19T19:21:29.786Z,44.11
2023-05-19T19:23:58.679Z,44.33
2023-05-19T19:26:29.041Z,45.14
2023-05-19T19:28:58.162Z,45.22
2023-05-19T19:31:28.753Z,45.99
2023-05-19T19:34:03.048Z,45.65
2023-05-19T19:36:32.463Z,46.09
2023-05-19T19:39:00.991Z,45.85
2023-05-19T19:41:29.824Z,46.35
2023-05-19T19:43:58.393Z,46.71
2023-05-19T19:46:26.550Z,46.71
2023-05-19T19:49:00.371Z,46.63
2023-05-19T19:51:28.792Z,47.27
2023-05-19T19:53:56.753Z,47.61
2023-05-19T19:56:26.365Z,47.92
2023-05-19T19:58:56.865Z,48.59
2023-05-19T20:01:28.122Z,49.36
2023-05-19T20:03:58.389Z,50.10
2023-05-19T20:06:27.199Z,52.03
2023-05-19T20:08:55.753Z,54.68
2023-05-19T20:11:24.546Z,56.80
2023-05-19T20:13:52.980Z,57.73
2023-05-19T20:16:21.664Z,58.29
2023-05-19T20:18:50.316Z,58.39
2023-05-19T20:21:22.156Z,59.26
2023-05-19T20:23:51.123Z,59.67
2023-05-19T20:26:19.031Z,59.52
2023-05-19T20:28:47.470Z,60.71
2023-05-19T20:31:15.477Z,61.21
2023-05-19T20:33:43.729Z,61.64
2023-05-19T20:36:11.972Z,62.29
2023-05-19T20:38:41.347Z,62.40
2023-05-19T20:41:09.838Z,63.33
2023-05-19T20:43:39.605Z,63.00
2023-05-19T20:46:07.721Z,63.51
2023-05-19T20:48:36.023Z,63.30
2023-05-19T20:51:04.064Z,63.72
2023-05-19T20:53:32.157Z,64.76
2023-05-19T20:56:01.518Z,64.98
2023-05-19T20:58:31.485Z,65.40
2023-05-19T21:00:59.576Z,65.64
2023-05-19T21:03:28.586Z,66.05
2023-05-19T21:05:57.211Z,66.69
2023-05-19T21:08:25.406Z,66.28
2023-05-19T21:10:53.636Z,66.11
2023-05-19T21:13:23.489Z,66.58
2023-05-19T21:15:51.335Z,67.17
2023-05-19T21:18:19.298Z,67.45
2023-05-19T21:20:47.786Z,67.37
2023-05-19T21:23:15.830Z,67.10
2023-05-19T21:25:45.398Z,67.61
2023-05-19T21:28:13.637Z,67.52
2023-05-19T21:30:44.462Z,68.28
2023-05-19T21:33:12.520Z,68.41
2023-05-19T21:35:41.018Z,67.82
2023-05-19T21:38:22.750Z,69.05
2023-05-19T21:40:52.734Z,68.72
2023-05-19T21:43:21.871Z,69.01
2023-05-19T21:45:52.197Z,69.02
2023-05-19T21:48:21.449Z,69.11
2023-05-19T21:50:54.057Z,69.25
2023-05-19T21:53:22.154Z,68.97
2023-05-19T21:55:50.192Z,69.06
2023-05-19T21:58:19.540Z,68.77
2023-05-19T22:00:51.503Z,69.25
2023-05-19T22:03:20.996Z,69.42
2023-05-19T22:05:52.718Z,69.28
2023-05-19T22:08:22.809Z,69.28
2023-05-19T22:10:51.920Z,70.33
2023-05-19T22:13:20.711Z,70.29
2023-05-19T22:15:49.698Z,70.64
2023-05-19T22:18:19.015Z,70.85
2023-05-19T22:20:48.019Z,70.73
2023-05-19T22:23:16.350Z,71.18
2023-05-19T22:25:44.492Z,70.98
2023-05-19T22:28:12.627Z,70.58
2023-05-19T22:30:42.590Z,70.03
2023-05-19T22:33:11.297Z,70.35
2023-05-19T22:35:41.757Z,70.29
2023-05-19T22:38:10.718Z,70.08
2023-05-19T22:40:39.238Z,69.99
2023-05-19T22:43:07.233Z,70.72
2023-05-19T22:45:36.448Z,70.58
2023-05-19T22:48:04.937Z,70.65
2023-05-19T22:50:33.019Z,70.86
2023-05-19T22:53:02.830Z,71.18
2023-05-19T22:55:33.129Z,71.39
2023-05-19T22:58:01.954Z,71.26
2023-05-19T23:00:30.449Z,71.82
2023-05-19T23:02:59.002Z,73.09
2023-05-19T23:05:27.066Z,72.66
2023-05-19T23:07:55.268Z,73.09
2023-05-19T23:10:24.651Z,72.82
2023-05-19T23:12:54.129Z,72.76
2023-05-19T23:15:22.173Z,73.62
2023-05-19T23:17:50.171Z,73.34
2023-05-19T23:20:18.836Z,73.21
2023-05-19T23:22:46.789Z,72.82
2023-05-19T23:25:15.261Z,72.63
2023-05-19T23:27:46.916Z,72.90
2023-05-19T23:30:14.924Z,72.32
2023-05-19T23:32:43.395Z,72.00
2023-05-19T23:35:12.916Z,71.23
2023-05-19T23:37:41.253Z,72.59
2023-05-19T23:40:11.008Z,71.52
2023-05-19T23:42:39.040Z,70.76
2023-05-19T23:45:10.440Z,70.15
2023-05-19T23:47:38.594Z,70.20
2023-05-19T23:50:07.427Z,69.78
2023-05-19T23:52:36.589Z,68.21
2023-05-19T23:55:04.789Z,67.98
2023-05-19T23:57:33.808Z,67.62
